sensor_id;sensor_type;location;lat;lon;timestamp;P1;durP1;ratioP1;P2;durP2;ratioP2
70049;SDS011;57391;51.306;22.680;2023-06-14T00:02:14;8.00;;;3.80;;
70049;SDS011;57391;51.306;22.680;2023-06-14T00:04:41;8.40;;;3.80;;
70049;SDS011;57391;51.306;22.680;2023-06-14T00:07:09;9.90;;;3.90;;
70049;SDS011;57391;51.306;22.680;2023-06-14T00:09:35;8.70;;;3.70;;
70049;SDS011;57391;51.306;22.680;2023-06-14T00:12:02;6.30;;;3.40;;
70049;SDS011;57391;51.306;22.680;2023-06-14T00:14:28;8.10;;;4.10;;
70049;SDS011;57391;51.306;22.680;2023-06-14T00:16:54;9.60;;;4.00;;
70049;SDS011;57391;51.306;22.680;2023-06-14T00:19:25;8.50;;;3.70;;
70049;SDS011;57391;51.306;22.680;2023-06-14T00:21:52;7.30;;;3.50;;
70049;SDS011;57391;51.306;22.680;2023-06-14T00:24:19;11.70;;;3.60;;
70049;SDS011;57391;51.306;22.680;2023-06-14T00:26:47;10.00;;;3.90;;
70049;SDS011;57391;51.306;22.680;2023-06-14T00:29:13;7.50;;;3.40;;
70049;SDS011;57391;51.306;22.680;2023-06-14T00:31:39;9.30;;;4.10;;
70049;SDS011;57391;51.306;22.680;2023-06-14T00:34:05;6.20;;;3.60;;
70049;SDS011;57391;51.306;22.680;2023-06-14T00:36:32;6.70;;;3.50;;
70049;SDS011;57391;51.306;22.680;2023-06-14T00:38:58;7.90;;;3.40;;
70049;SDS011;57391;51.306;22.680;2023-06-14T00:41:25;10.20;;;3.60;;
70049;SDS011;57391;51.306;22.680;2023-06-14T00:43:51;7.50;;;3.60;;
70049;SDS011;57391;51.306;22.680;2023-06-14T00:46:18;6.00;;;3.50;;
70049;SDS011;57391;51.306;22.680;2023-06-14T00:48:46;7.50;;;3.60;;
70049;SDS011;57391;51.306;22.680;2023-06-14T00:51:14;6.80;;;3.50;;
70049;SDS011;57391;51.306;22.680;2023-06-14T00:53:40;11.20;;;3.70;;
70049;SDS011;57391;51.306;22.680;2023-06-14T00:56:14;7.40;;;3.60;;
70049;SDS011;57391;51.306;22.680;2023-06-14T00:58:43;9.90;;;3.90;;
70049;SDS011;57391;51.306;22.680;2023-06-14T01:01:12;7.90;;;4.40;;
70049;SDS011;57391;51.306;22.680;2023-06-14T01:03:41;7.20;;;3.60;;
70049;SDS011;57391;51.306;22.680;2023-06-14T01:06:20;10.20;;;3.80;;
70049;SDS011;57391;51.306;22.680;2023-06-14T01:09:26;8.70;;;3.80;;
70049;SDS011;57391;51.306;22.680;2023-06-14T01:12:11;7.10;;;3.80;;
70049;SDS011;57391;51.306;22.680;2023-06-14T01:14:43;5.50;;;3.70;;
70049;SDS011;57391;51.306;22.680;2023-06-14T01:17:11;8.10;;;3.80;;
70049;SDS011;57391;51.306;22.680;2023-06-14T01:19:43;7.00;;;3.50;;
70049;SDS011;57391;51.306;22.680;2023-06-14T01:22:10;7.50;;;3.90;;
70049;SDS011;57391;51.306;22.680;2023-06-14T01:24:37;9.20;;;3.70;;
70049;SDS011;57391;51.306;22.680;2023-06-14T01:27:05;7.80;;;4.10;;
70049;SDS011;57391;51.306;22.680;2023-06-14T01:29:33;8.70;;;4.10;;
70049;SDS011;57391;51.306;22.680;2023-06-14T01:32:02;6.60;;;4.30;;
70049;SDS011;57391;51.306;22.680;2023-06-14T01:34:30;7.00;;;4.20;;
70049;SDS011;57391;51.306;22.680;2023-06-14T01:36:57;9.90;;;4.40;;
70049;SDS011;57391;51.306;22.680;2023-06-14T01:39:28;8.70;;;4.10;;
70049;SDS011;57391;51.306;22.680;2023-06-14T01:41:55;7.40;;;4.10;;
70049;SDS011;57391;51.306;22.680;2023-06-14T01:44:23;8.00;;;4.30;;
70049;SDS011;57391;51.306;22.680;2023-06-14T01:46:51;10.50;;;4.50;;
70049;SDS011;57391;51.306;22.680;2023-06-14T01:49:17;9.90;;;4.70;;
70049;SDS011;57391;51.306;22.680;2023-06-14T01:51:43;7.60;;;4.60;;
70049;SDS011;57391;51.306;22.680;2023-06-14T01:54:10;7.70;;;4.40;;
70049;SDS011;57391;51.306;22.680;2023-06-14T01:56:38;8.70;;;4.30;;
70049;SDS011;57391;51.306;22.680;2023-06-14T01:59:04;8.60;;;4.40;;
70049;SDS011;57391;51.306;22.680;2023-06-14T02:01:30;7.20;;;4.30;;
70049;SDS011;57391;51.306;22.680;2023-06-14T02:03:56;8.50;;;4.70;;
70049;SDS011;57391;51.306;22.680;2023-06-14T02:06:23;13.80;;;5.10;;
70049;SDS011;57391;51.306;22.680;2023-06-14T02:08:50;8.20;;;4.80;;
70049;SDS011;57391;51.306;22.680;2023-06-14T02:11:16;7.60;;;4.80;;
70049;SDS011;57391;51.306;22.680;2023-06-14T02:13:42;9.80;;;4.60;;
70049;SDS011;57391;51.306;22.680;2023-06-14T02:16:08;7.10;;;4.60;;
70049;SDS011;57391;51.306;22.680;2023-06-14T02:18:35;7.70;;;4.90;;
70049;SDS011;57391;51.306;22.680;2023-06-14T02:21:02;9.30;;;5.00;;
70049;SDS011;57391;51.306;22.680;2023-06-14T02:23:28;11.40;;;5.00;;
70049;SDS011;57391;51.306;22.680;2023-06-14T02:25:54;9.40;;;4.70;;
70049;SDS011;57391;51.306;22.680;2023-06-14T02:28:21;9.50;;;5.00;;
70049;SDS011;57391;51.306;22.680;2023-06-14T02:30:47;7.80;;;5.00;;
70049;SDS011;57391;51.306;22.680;2023-06-14T02:33:13;7.30;;;4.60;;
70049;SDS011;57391;51.306;22.680;2023-06-14T02:35:40;13.50;;;5.10;;
70049;SDS011;57391;51.306;22.680;2023-06-14T02:38:06;8.70;;;4.70;;
70049;SDS011;57391;51.306;22.680;2023-06-14T02:40:32;7.50;;;5.00;;
70049;SDS011;57391;51.306;22.680;2023-06-14T02:42:58;9.50;;;5.00;;
70049;SDS011;57391;51.306;22.680;2023-06-14T02:45:24;8.20;;;5.20;;
70049;SDS011;57391;51.306;22.680;2023-06-14T02:47:50;7.40;;;4.60;;
70049;SDS011;57391;51.306;22.680;2023-06-14T02:50:17;12.30;;;4.60;;
70049;SDS011;57391;51.306;22.680;2023-06-14T02:52:43;12.70;;;5.30;;
70049;SDS011;57391;51.306;22.680;2023-06-14T02:55:11;7.90;;;4.90;;
70049;SDS011;57391;51.306;22.680;2023-06-14T02:57:37;9.00;;;4.80;;
70049;SDS011;57391;51.306;22.680;2023-06-14T03:00:04;7.80;;;4.80;;
70049;SDS011;57391;51.306;22.680;2023-06-14T03:02:35;9.40;;;4.80;;
70049;SDS011;57391;51.306;22.680;2023-06-14T03:05:02;9.30;;;5.20;;
70049;SDS011;57391;51.306;22.680;2023-06-14T03:07:29;9.40;;;5.10;;
70049;SDS011;57391;51.306;22.680;2023-06-14T03:09:56;9.70;;;5.50;;
70049;SDS011;57391;51.306;22.680;2023-06-14T03:12:22;12.50;;;5.10;;
70049;SDS011;57391;51.306;22.680;2023-06-14T03:14:49;8.40;;;5.20;;
70049;SDS011;57391;51.306;22.680;2023-06-14T03:17:20;8.40;;;5.00;;
70049;SDS011;57391;51.306;22.680;2023-06-14T03:19:47;10.90;;;5.80;;
70049;SDS011;57391;51.306;22.680;2023-06-14T03:22:13;9.10;;;5.60;;
70049;SDS011;57391;51.306;22.680;2023-06-14T03:24:40;10.00;;;5.30;;
70049;SDS011;57391;51.306;22.680;2023-06-14T03:27:09;9.10;;;5.20;;
70049;SDS011;57391;51.306;22.680;2023-06-14T03:29:36;9.60;;;4.90;;
70049;SDS011;57391;51.306;22.680;2023-06-14T03:32:03;9.60;;;5.20;;
70049;SDS011;57391;51.306;22.680;2023-06-14T03:34:35;9.10;;;5.60;;
70049;SDS011;57391;51.306;22.680;2023-06-14T03:37:04;9.90;;;5.70;;
70049;SDS011;57391;51.306;22.680;2023-06-14T03:39:32;9.60;;;5.40;;
70049;SDS011;57391;51.306;22.680;2023-06-14T03:41:58;15.80;;;5.50;;
70049;SDS011;57391;51.306;22.680;2023-06-14T03:44:26;11.20;;;5.50;;
70049;SDS011;57391;51.306;22.680;2023-06-14T03:46:52;9.30;;;5.90;;
70049;SDS011;57391;51.306;22.680;2023-06-14T03:49:19;14.30;;;5.80;;
70049;SDS011;57391;51.306;22.680;2023-06-14T03:51:45;9.90;;;6.60;;
70049;SDS011;57391;51.306;22.680;2023-06-14T03:54:17;8.90;;;5.90;;
70049;SDS011;57391;51.306;22.680;2023-06-14T03:56:43;10.30;;;5.40;;
70049;SDS011;57391;51.306;22.680;2023-06-14T03:59:09;9.10;;;4.90;;
70049;SDS011;57391;51.306;22.680;2023-06-14T04:01:36;10.30;;;4.80;;
70049;SDS011;57391;51.306;22.680;2023-06-14T04:04:02;10.90;;;5.30;;
70049;SDS011;57391;51.306;22.680;2023-06-14T04:06:28;10.80;;;5.10;;
70049;SDS011;57391;51.306;22.680;2023-06-14T04:08:59;6.60;;;4.80;;
70049;SDS011;57391;51.306;22.680;2023-06-14T04:11:29;7.20;;;4.70;;
70049;SDS011;57391;51.306;22.680;2023-06-14T04:13:58;7.90;;;4.50;;
70049;SDS011;57391;51.306;22.680;2023-06-14T04:16:25;7.60;;;4.50;;
70049;SDS011;57391;51.306;22.680;2023-06-14T04:18:54;9.00;;;4.90;;
70049;SDS011;57391;51.306;22.680;2023-06-14T04:21:21;8.50;;;4.80;;
70049;SDS011;57391;51.306;22.680;2023-06-14T04:23:51;10.00;;;4.90;;
70049;SDS011;57391;51.306;22.680;2023-06-14T04:26:19;8.50;;;5.00;;
70049;SDS011;57391;51.306;22.680;2023-06-14T04:28:46;8.80;;;4.30;;
70049;SDS011;57391;51.306;22.680;2023-06-14T04:31:13;7.40;;;4.70;;
70049;SDS011;57391;51.306;22.680;2023-06-14T04:33:39;10.00;;;4.90;;
70049;SDS011;57391;51.306;22.680;2023-06-14T04:36:10;7.40;;;4.70;;
70049;SDS011;57391;51.306;22.680;2023-06-14T04:38:39;8.00;;;4.60;;
70049;SDS011;57391;51.306;22.680;2023-06-14T04:41:07;8.60;;;5.00;;
70049;SDS011;57391;51.306;22.680;2023-06-14T04:43:38;8.10;;;4.90;;
70049;SDS011;57391;51.306;22.680;2023-06-14T04:46:05;10.80;;;5.00;;
70049;SDS011;57391;51.306;22.680;2023-06-14T04:48:40;7.70;;;4.70;;
70049;SDS011;57391;51.306;22.680;2023-06-14T04:51:09;7.70;;;4.90;;
70049;SDS011;57391;51.306;22.680;2023-06-14T04:53:36;7.90;;;4.70;;
70049;SDS011;57391;51.306;22.680;2023-06-14T04:56:03;8.90;;;5.30;;
70049;SDS011;57391;51.306;22.680;2023-06-14T04:58:30;9.60;;;5.10;;
70049;SDS011;57391;51.306;22.680;2023-06-14T05:00:58;8.20;;;4.70;;
70049;SDS011;57391;51.306;22.680;2023-06-14T05:03:28;7.60;;;5.20;;
70049;SDS011;57391;51.306;22.680;2023-06-14T05:05:56;9.60;;;5.00;;
70049;SDS011;57391;51.306;22.680;2023-06-14T05:08:22;9.70;;;5.00;;
70049;SDS011;57391;51.306;22.680;2023-06-14T05:10:50;8.50;;;4.90;;
70049;SDS011;57391;51.306;22.680;2023-06-14T05:13:17;9.20;;;4.90;;
70049;SDS011;57391;51.306;22.680;2023-06-14T05:15:44;7.80;;;4.80;;
70049;SDS011;57391;51.306;22.680;2023-06-14T05:18:12;11.60;;;5.40;;
70049;SDS011;57391;51.306;22.680;2023-06-14T05:20:39;9.50;;;4.90;;
70049;SDS011;57391;51.306;22.680;2023-06-14T05:23:08;11.10;;;4.90;;
70049;SDS011;57391;51.306;22.680;2023-06-14T05:25:45;9.70;;;4.60;;
70049;SDS011;57391;51.306;22.680;2023-06-14T05:28:12;10.70;;;5.10;;
70049;SDS011;57391;51.306;22.680;2023-06-14T05:30:38;7.90;;;4.80;;
70049;SDS011;57391;51.306;22.680;2023-06-14T05:33:08;8.50;;;5.50;;
70049;SDS011;57391;51.306;22.680;2023-06-14T05:35:34;9.90;;;5.10;;
70049;SDS011;57391;51.306;22.680;2023-06-14T05:38:00;10.70;;;5.20;;
70049;SDS011;57391;51.306;22.680;2023-06-14T05:40:27;9.30;;;5.20;;
70049;SDS011;57391;51.306;22.680;2023-06-14T05:42:54;9.90;;;4.70;;
70049;SDS011;57391;51.306;22.680;2023-06-14T05:45:20;8.70;;;4.70;;
70049;SDS011;57391;51.306;22.680;2023-06-14T05:47:46;10.20;;;4.60;;
70049;SDS011;57391;51.306;22.680;2023-06-14T05:50:13;9.30;;;5.10;;
70049;SDS011;57391;51.306;22.680;2023-06-14T05:52:39;8.30;;;4.80;;
70049;SDS011;57391;51.306;22.680;2023-06-14T05:55:08;7.90;;;4.60;;
70049;SDS011;57391;51.306;22.680;2023-06-14T05:57:34;8.90;;;4.50;;
70049;SDS011;57391;51.306;22.680;2023-06-14T06:00:01;7.10;;;4.60;;
70049;SDS011;57391;51.306;22.680;2023-06-14T06:02:38;6.10;;;4.20;;
70049;SDS011;57391;51.306;22.680;2023-06-14T06:05:04;8.10;;;4.60;;
70049;SDS011;57391;51.306;22.680;2023-06-14T06:07:31;8.70;;;4.50;;
70049;SDS011;57391;51.306;22.680;2023-06-14T06:09:58;8.20;;;4.30;;
70049;SDS011;57391;51.306;22.680;2023-06-14T06:12:24;7.80;;;4.00;;
70049;SDS011;57391;51.306;22.680;2023-06-14T06:14:50;8.20;;;4.10;;
70049;SDS011;57391;51.306;22.680;2023-06-14T06:17:17;6.70;;;4.00;;
70049;SDS011;57391;51.306;22.680;2023-06-14T06:19:43;9.80;;;4.70;;
70049;SDS011;57391;51.306;22.680;2023-06-14T06:22:09;9.90;;;4.20;;
70049;SDS011;57391;51.306;22.680;2023-06-14T06:24:36;7.90;;;4.90;;
70049;SDS011;57391;51.306;22.680;2023-06-14T06:27:03;6.80;;;4.20;;
70049;SDS011;57391;51.306;22.680;2023-06-14T06:29:29;8.60;;;4.10;;
70049;SDS011;57391;51.306;22.680;2023-06-14T06:31:55;8.30;;;4.10;;
70049;SDS011;57391;51.306;22.680;2023-06-14T06:34:22;8.20;;;4.20;;
70049;SDS011;57391;51.306;22.680;2023-06-14T06:36:48;7.30;;;3.80;;
70049;SDS011;57391;51.306;22.680;2023-06-14T06:39:14;6.80;;;3.80;;
70049;SDS011;57391;51.306;22.680;2023-06-14T06:41:41;6.00;;;3.70;;
70049;SDS011;57391;51.306;22.680;2023-06-14T06:44:07;7.70;;;4.10;;
70049;SDS011;57391;51.306;22.680;2023-06-14T06:46:33;7.60;;;4.10;;
70049;SDS011;57391;51.306;22.680;2023-06-14T06:49:00;7.40;;;3.70;;
70049;SDS011;57391;51.306;22.680;2023-06-14T06:51:27;6.30;;;3.90;;
70049;SDS011;57391;51.306;22.680;2023-06-14T06:53:53;11.50;;;3.60;;
70049;SDS011;57391;51.306;22.680;2023-06-14T06:56:21;9.90;;;3.80;;
70049;SDS011;57391;51.306;22.680;2023-06-14T06:58:50;5.50;;;3.40;;
70049;SDS011;57391;51.306;22.680;2023-06-14T07:01:17;6.90;;;3.60;;
70049;SDS011;57391;51.306;22.680;2023-06-14T07:03:45;5.30;;;3.50;;
70049;SDS011;57391;51.306;22.680;2023-06-14T07:06:12;6.70;;;3.40;;
70049;SDS011;57391;51.306;22.680;2023-06-14T07:08:38;8.60;;;3.60;;
70049;SDS011;57391;51.306;22.680;2023-06-14T07:11:05;6.00;;;3.00;;
70049;SDS011;57391;51.306;22.680;2023-06-14T07:13:31;7.40;;;3.10;;
70049;SDS011;57391;51.306;22.680;2023-06-14T16:33:14;11.70;;;7.40;;
70049;SDS011;57391;51.306;22.680;2023-06-14T16:35:41;48.20;;;32.70;;
70049;SDS011;57391;51.306;22.680;2023-06-14T16:38:08;23.90;;;15.30;;
70049;SDS011;57391;51.306;22.680;2023-06-14T16:40:35;11.30;;;8.50;;
70049;SDS011;57391;51.306;22.680;2023-06-14T16:43:02;12.20;;;8.80;;
70049;SDS011;57391;51.306;22.680;2023-06-14T16:45:29;10.00;;;6.90;;
70049;SDS011;57391;51.306;22.680;2023-06-14T16:47:56;8.80;;;6.80;;
70049;SDS011;57391;51.306;22.680;2023-06-14T16:50:23;13.20;;;7.40;;
70049;SDS011;57391;51.306;22.680;2023-06-14T16:52:50;10.70;;;8.20;;
70049;SDS011;57391;51.306;22.680;2023-06-14T16:55:17;13.50;;;6.60;;
70049;SDS011;57391;51.306;22.680;2023-06-14T16:57:44;7.80;;;5.70;;
70049;SDS011;57391;51.306;22.680;2023-06-14T17:00:14;11.90;;;7.80;;
70049;SDS011;57391;51.306;22.680;2023-06-14T17:02:41;11.00;;;7.90;;
70049;SDS011;57391;51.306;22.680;2023-06-14T17:05:12;11.00;;;7.40;;
70049;SDS011;57391;51.306;22.680;2023-06-14T17:07:40;15.50;;;7.90;;
70049;SDS011;57391;51.306;22.680;2023-06-14T17:10:07;12.90;;;9.40;;
70049;SDS011;57391;51.306;22.680;2023-06-14T17:12:34;15.90;;;9.00;;
70049;SDS011;57391;51.306;22.680;2023-06-14T17:15:03;16.50;;;11.00;;
70049;SDS011;57391;51.306;22.680;2023-06-14T17:17:31;12.20;;;8.50;;
70049;SDS011;57391;51.306;22.680;2023-06-14T17:19:58;13.20;;;9.60;;
70049;SDS011;57391;51.306;22.680;2023-06-14T17:22:25;18.40;;;12.10;;
70049;SDS011;57391;51.306;22.680;2023-06-14T17:24:52;32.90;;;20.60;;
70049;SDS011;57391;51.306;22.680;2023-06-14T17:27:20;31.20;;;22.90;;
70049;SDS011;57391;51.306;22.680;2023-06-14T17:29:47;44.30;;;28.50;;
70049;SDS011;57391;51.306;22.680;2023-06-14T17:32:14;21.10;;;14.80;;
70049;SDS011;57391;51.306;22.680;2023-06-14T17:34:41;29.10;;;19.20;;
70049;SDS011;57391;51.306;22.680;2023-06-14T17:37:08;44.30;;;32.10;;
70049;SDS011;57391;51.306;22.680;2023-06-14T17:39:35;81.80;;;62.70;;
70049;SDS011;57391;51.306;22.680;2023-06-14T17:42:03;43.20;;;33.10;;
70049;SDS011;57391;51.306;22.680;2023-06-14T17:44:30;35.90;;;28.00;;
70049;SDS011;57391;51.306;22.680;2023-06-14T17:46:57;30.40;;;21.10;;
70049;SDS011;57391;51.306;22.680;2023-06-14T17:49:24;31.90;;;19.30;;
70049;SDS011;57391;51.306;22.680;2023-06-14T17:51:53;33.80;;;19.60;;
70049;SDS011;57391;51.306;22.680;2023-06-14T17:54:20;40.50;;;33.80;;
70049;SDS011;57391;51.306;22.680;2023-06-14T17:56:47;49.70;;;42.90;;
70049;SDS011;57391;51.306;22.680;2023-06-14T17:59:15;55.60;;;36.70;;
70049;SDS011;57391;51.306;22.680;2023-06-14T18:01:42;51.00;;;32.50;;
70049;SDS011;57391;51.306;22.680;2023-06-14T18:04:09;47.10;;;28.10;;
70049;SDS011;57391;51.306;22.680;2023-06-14T18:06:35;42.90;;;24.70;;
70049;SDS011;57391;51.306;22.680;2023-06-14T18:09:02;42.90;;;21.20;;
70049;SDS011;57391;51.306;22.680;2023-06-14T18:11:29;30.40;;;17.10;;
70049;SDS011;57391;51.306;22.680;2023-06-14T18:13:57;26.70;;;17.00;;
70049;SDS011;57391;51.306;22.680;2023-06-14T18:16:26;19.00;;;10.80;;
70049;SDS011;57391;51.306;22.680;2023-06-14T18:18:56;14.20;;;8.40;;
70049;SDS011;57391;51.306;22.680;2023-06-14T18:21:23;14.10;;;7.50;;
70049;SDS011;57391;51.306;22.680;2023-06-14T18:23:49;12.40;;;6.70;;
70049;SDS011;57391;51.306;22.680;2023-06-14T18:26:24;10.60;;;7.10;;
70049;SDS011;57391;51.306;22.680;2023-06-14T18:28:55;15.20;;;8.20;;
70049;SDS011;57391;51.306;22.680;2023-06-14T18:31:22;18.50;;;10.00;;
70049;SDS011;57391;51.306;22.680;2023-06-14T18:33:49;18.80;;;11.80;;
70049;SDS011;57391;51.306;22.680;2023-06-14T18:36:16;19.20;;;11.20;;
70049;SDS011;57391;51.306;22.680;2023-06-14T18:38:45;43.20;;;21.90;;
70049;SDS011;57391;51.306;22.680;2023-06-14T18:41:13;33.80;;;21.10;;
70049;SDS011;57391;51.306;22.680;2023-06-14T18:43:40;19.40;;;12.10;;
70049;SDS011;57391;51.306;22.680;2023-06-14T18:46:09;13.30;;;8.30;;
70049;SDS011;57391;51.306;22.680;2023-06-14T18:48:36;9.90;;;7.10;;
70049;SDS011;57391;51.306;22.680;2023-06-14T18:51:03;10.60;;;7.40;;
70049;SDS011;57391;51.306;22.680;2023-06-14T18:53:30;11.30;;;6.80;;
70049;SDS011;57391;51.306;22.680;2023-06-14T18:55:57;9.40;;;6.80;;
70049;SDS011;57391;51.306;22.680;2023-06-14T18:58:24;11.60;;;6.90;;
70049;SDS011;57391;51.306;22.680;2023-06-14T19:00:51;13.60;;;7.20;;
70049;SDS011;57391;51.306;22.680;2023-06-14T19:03:21;14.40;;;7.70;;
70049;SDS011;57391;51.306;22.680;2023-06-14T19:05:50;10.10;;;7.20;;
70049;SDS011;57391;51.306;22.680;2023-06-14T19:08:17;10.70;;;7.10;;
70049;SDS011;57391;51.306;22.680;2023-06-14T19:10:44;11.10;;;6.90;;
70049;SDS011;57391;51.306;22.680;2023-06-14T19:13:11;10.30;;;6.80;;
70049;SDS011;57391;51.306;22.680;2023-06-14T19:15:38;13.00;;;7.40;;
70049;SDS011;57391;51.306;22.680;2023-06-14T19:18:05;11.00;;;7.30;;
70049;SDS011;57391;51.306;22.680;2023-06-14T19:20:32;10.00;;;7.20;;
70049;SDS011;57391;51.306;22.680;2023-06-14T19:23:00;13.20;;;7.40;;
70049;SDS011;57391;51.306;22.680;2023-06-14T19:25:29;10.60;;;7.00;;
70049;SDS011;57391;51.306;22.680;2023-06-14T19:27:56;9.90;;;6.80;;
70049;SDS011;57391;51.306;22.680;2023-06-14T19:30:23;9.80;;;6.90;;
70049;SDS011;57391;51.306;22.680;2023-06-14T19:32:50;10.00;;;6.90;;
70049;SDS011;57391;51.306;22.680;2023-06-14T19:35:18;11.50;;;6.80;;
70049;SDS011;57391;51.306;22.680;2023-06-14T19:37:47;10.70;;;7.50;;
70049;SDS011;57391;51.306;22.680;2023-06-14T19:40:14;10.20;;;7.10;;
70049;SDS011;57391;51.306;22.680;2023-06-14T19:42:44;11.90;;;7.50;;
70049;SDS011;57391;51.306;22.680;2023-06-14T19:45:11;12.00;;;7.50;;
70049;SDS011;57391;51.306;22.680;2023-06-14T19:47:40;11.50;;;8.00;;
70049;SDS011;57391;51.306;22.680;2023-06-14T19:50:16;14.60;;;9.00;;
70049;SDS011;57391;51.306;22.680;2023-06-14T19:52:44;17.00;;;9.90;;
70049;SDS011;57391;51.306;22.680;2023-06-14T19:55:14;16.70;;;8.40;;
70049;SDS011;57391;51.306;22.680;2023-06-14T19:57:44;13.00;;;7.90;;
70049;SDS011;57391;51.306;22.680;2023-06-14T20:00:12;12.50;;;7.60;;
70049;SDS011;57391;51.306;22.680;2023-06-14T20:02:48;11.90;;;7.40;;
70049;SDS011;57391;51.306;22.680;2023-06-14T20:05:18;13.20;;;7.30;;
70049;SDS011;57391;51.306;22.680;2023-06-14T20:07:45;11.90;;;7.80;;
70049;SDS011;57391;51.306;22.680;2023-06-14T20:19:11;11.30;;;7.90;;
70049;SDS011;57391;51.306;22.680;2023-06-14T20:21:38;13.20;;;8.90;;
70049;SDS011;57391;51.306;22.680;2023-06-14T20:24:05;16.70;;;11.60;;
70049;SDS011;57391;51.306;22.680;2023-06-14T20:26:32;27.60;;;13.30;;
70049;SDS011;57391;51.306;22.680;2023-06-14T20:29:00;21.50;;;10.60;;
70049;SDS011;57391;51.306;22.680;2023-06-14T20:31:27;17.30;;;9.60;;
70049;SDS011;57391;51.306;22.680;2023-06-14T20:33:57;15.50;;;8.70;;
70049;SDS011;57391;51.306;22.680;2023-06-14T20:36:26;17.80;;;8.60;;
70049;SDS011;57391;51.306;22.680;2023-06-14T20:38:57;16.60;;;8.40;;
70049;SDS011;57391;51.306;22.680;2023-06-14T20:41:24;20.30;;;10.00;;
70049;SDS011;57391;51.306;22.680;2023-06-14T20:43:52;32.20;;;12.90;;
70049;SDS011;57391;51.306;22.680;2023-06-14T20:46:20;41.30;;;13.80;;
70049;SDS011;57391;51.306;22.680;2023-06-14T20:48:47;23.60;;;10.50;;
70049;SDS011;57391;51.306;22.680;2023-06-14T20:51:14;19.30;;;9.60;;
70049;SDS011;57391;51.306;22.680;2023-06-14T21:03:01;15.70;;;9.30;;
70049;SDS011;57391;51.306;22.680;2023-06-14T21:05:30;16.20;;;9.80;;
70049;SDS011;57391;51.306;22.680;2023-06-14T21:07:58;10.70;;;8.40;;
70049;SDS011;57391;51.306;22.680;2023-06-14T21:10:26;12.90;;;8.70;;
70049;SDS011;57391;51.306;22.680;2023-06-14T21:12:57;15.60;;;7.80;;
70049;SDS011;57391;51.306;22.680;2023-06-14T21:15:24;14.00;;;7.90;;
70049;SDS011;57391;51.306;22.680;2023-06-14T21:17:55;14.10;;;7.60;;
70049;SDS011;57391;51.306;22.680;2023-06-14T21:20:22;15.20;;;7.90;;
70049;SDS011;57391;51.306;22.680;2023-06-14T21:22:51;13.30;;;7.10;;
70049;SDS011;57391;51.306;22.680;2023-06-14T21:25:18;11.40;;;7.40;;
70049;SDS011;57391;51.306;22.680;2023-06-14T21:27:45;11.20;;;7.60;;
70049;SDS011;57391;51.306;22.680;2023-06-14T21:30:14;13.80;;;7.70;;
70049;SDS011;57391;51.306;22.680;2023-06-14T21:32:44;12.70;;;7.50;;
70049;SDS011;57391;51.306;22.680;2023-06-14T21:35:16;15.30;;;7.80;;
70049;SDS011;57391;51.306;22.680;2023-06-14T21:37:46;12.70;;;8.10;;
70049;SDS011;57391;51.306;22.680;2023-06-14T21:40:13;13.20;;;8.00;;
70049;SDS011;57391;51.306;22.680;2023-06-14T21:42:41;12.80;;;8.60;;
70049;SDS011;57391;51.306;22.680;2023-06-14T21:45:08;13.80;;;8.70;;
70049;SDS011;57391;51.306;22.680;2023-06-14T21:47:37;11.90;;;8.50;;
70049;SDS011;57391;51.306;22.680;2023-06-14T21:50:05;16.50;;;8.60;;
70049;SDS011;57391;51.306;22.680;2023-06-14T21:52:33;14.40;;;8.30;;
70049;SDS011;57391;51.306;22.680;2023-06-14T22:05:49;13.30;;;8.50;;
70049;SDS011;57391;51.306;22.680;2023-06-14T22:08:16;17.30;;;9.40;;
70049;SDS011;57391;51.306;22.680;2023-06-14T22:10:43;14.00;;;9.30;;
70049;SDS011;57391;51.306;22.680;2023-06-14T22:13:10;13.30;;;9.30;;
70049;SDS011;57391;51.306;22.680;2023-06-14T22:15:56;14.70;;;9.50;;
70049;SDS011;57391;51.306;22.680;2023-06-14T22:18:23;12.60;;;8.80;;
70049;SDS011;57391;51.306;22.680;2023-06-14T22:20:51;13.20;;;9.50;;
70049;SDS011;57391;51.306;22.680;2023-06-14T22:23:20;14.30;;;10.00;;
70049;SDS011;57391;51.306;22.680;2023-06-14T22:25:47;21.50;;;14.20;;
70049;SDS011;57391;51.306;22.680;2023-06-14T22:28:14;19.10;;;12.90;;
70049;SDS011;57391;51.306;22.680;2023-06-14T22:30:43;18.10;;;13.00;;
70049;SDS011;57391;51.306;22.680;2023-06-14T22:33:11;18.10;;;11.70;;
70049;SDS011;57391;51.306;22.680;2023-06-14T22:35:38;16.00;;;10.00;;
70049;SDS011;57391;51.306;22.680;2023-06-14T22:38:05;16.00;;;9.30;;
70049;SDS011;57391;51.306;22.680;2023-06-14T22:40:34;15.30;;;10.00;;
70049;SDS011;57391;51.306;22.680;2023-06-14T22:43:01;17.20;;;9.50;;
70049;SDS011;57391;51.306;22.680;2023-06-14T22:45:27;14.20;;;9.60;;
70049;SDS011;57391;51.306;22.680;2023-06-14T22:47:56;13.90;;;9.50;;
70049;SDS011;57391;51.306;22.680;2023-06-14T22:50:24;13.20;;;9.30;;
70049;SDS011;57391;51.306;22.680;2023-06-14T22:52:51;16.90;;;9.70;;
70049;SDS011;57391;51.306;22.680;2023-06-14T22:55:19;16.20;;;9.60;;
70049;SDS011;57391;51.306;22.680;2023-06-14T22:57:46;17.40;;;9.70;;
70049;SDS011;57391;51.306;22.680;2023-06-14T23:00:13;15.20;;;10.10;;
70049;SDS011;57391;51.306;22.680;2023-06-14T23:02:41;20.20;;;10.70;;
70049;SDS011;57391;51.306;22.680;2023-06-14T23:05:09;17.70;;;10.70;;
70049;SDS011;57391;51.306;22.680;2023-06-14T23:07:38;14.80;;;9.70;;
70049;SDS011;57391;51.306;22.680;2023-06-14T23:10:06;14.20;;;9.40;;
70049;SDS011;57391;51.306;22.680;2023-06-14T23:12:34;13.20;;;9.50;;
70049;SDS011;57391;51.306;22.680;2023-06-14T23:15:01;17.40;;;9.70;;
70049;SDS011;57391;51.306;22.680;2023-06-14T23:17:30;15.20;;;10.70;;
70049;SDS011;57391;51.306;22.680;2023-06-14T23:19:59;15.30;;;9.70;;
70049;SDS011;57391;51.306;22.680;2023-06-14T23:22:34;13.00;;;9.30;;
70049;SDS011;57391;51.306;22.680;2023-06-14T23:25:03;16.50;;;10.10;;
70049;SDS011;57391;51.306;22.680;2023-06-14T23:27:33;16.50;;;10.30;;
70049;SDS011;57391;51.306;22.680;2023-06-14T23:30:02;17.50;;;10.00;;
70049;SDS011;57391;51.306;22.680;2023-06-14T23:32:30;14.00;;;10.10;;
70049;SDS011;57391;51.306;22.680;2023-06-14T23:35:01;14.40;;;9.50;;
70049;SDS011;57391;51.306;22.680;2023-06-14T23:37:29;13.40;;;9.60;;
70049;SDS011;57391;51.306;22.680;2023-06-14T23:39:59;13.60;;;10.20;;
70049;SDS011;57391;51.306;22.680;2023-06-14T23:42:27;14.30;;;9.90;;
70049;SDS011;57391;51.306;22.680;2023-06-14T23:44:58;14.40;;;10.40;;
70049;SDS011;57391;51.306;22.680;2023-06-14T23:47:28;16.70;;;10.70;;
70049;SDS011;57391;51.306;22.680;2023-06-14T23:50:00;15.90;;;10.70;;
70049;SDS011;57391;51.306;22.680;2023-06-14T23:52:30;15.60;;;10.70;;
70049;SDS011;57391;51.306;22.680;2023-06-14T23:54:58;14.20;;;10.30;;
70049;SDS011;57391;51.306;22.680;2023-06-14T23:57:27;14.80;;;10.00;;
70049;SDS011;57391;51.306;22.680;2023-06-14T23:59:54;15.00;;;9.50;;
